createdAt,value
2019-04-05T00:01:24.000Z,9.66
2019-04-05T00:03:50.770Z,9.67
2019-04-05T00:06:17.456Z,9.57
2019-04-05T00:08:44.164Z,9.58
2019-04-05T00:11:10.977Z,9.50
2019-04-05T00:13:37.717Z,9.49
2019-04-05T00:16:05.576Z,9.45
2019-04-05T00:18:32.265Z,9.52
2019-04-05T00:20:59.054Z,9.52
2019-04-05T00:23:25.971Z,9.46
2019-04-05T00:25:52.653Z,9.47
2019-04-05T00:28:19.449Z,9.47
2019-04-05T00:30:46.138Z,9.49
2019-04-05T00:33:12.717Z,9.42
2019-04-05T00:35:39.471Z,9.43
2019-04-05T00:38:06.159Z,9.42
2019-04-05T00:40:32.988Z,9.41
2019-04-05T00:42:59.668Z,9.41
2019-04-05T00:45:28.463Z,9.41
2019-04-05T00:47:55.073Z,9.38
2019-04-05T00:50:21.760Z,9.38
2019-04-05T00:52:48.567Z,9.37
2019-04-05T00:55:15.355Z,9.39
2019-04-05T00:57:42.228Z,9.40
2019-04-05T01:00:10.596Z,9.40
2019-04-05T01:02:37.264Z,9.40
2019-04-05T01:05:04.316Z,9.35
2019-04-05T01:07:31.079Z,9.38
2019-04-05T01:09:57.802Z,9.38
2019-04-05T01:12:24.876Z,9.37
2019-04-05T01:14:52.514Z,9.35
2019-04-05T01:17:24.804Z,9.33
2019-04-05T01:19:48.318Z,9.34
2019-04-05T01:22:15.321Z,9.36
2019-04-05T01:24:42.310Z,9.35
2019-04-05T01:27:10.270Z,9.32
2019-04-05T01:29:36.992Z,9.27
2019-04-05T01:32:03.674Z,9.23
2019-04-05T01:34:30.339Z,9.18
2019-04-05T01:36:57.049Z,9.11
2019-04-05T01:39:23.787Z,9.07
2019-04-05T01:41:50.508Z,9.07
2019-04-05T01:44:17.168Z,9.08
2019-04-05T01:46:46.669Z,9.06
2019-04-05T01:49:13.532Z,9.03
2019-04-05T01:51:40.221Z,9.07
2019-04-05T01:54:06.994Z,9.09
2019-04-05T01:56:33.655Z,9.08
2019-04-05T01:59:00.311Z,9.07
2019-04-05T02:01:27.019Z,9.09
2019-04-05T02:03:53.651Z,8.94
2019-04-05T02:06:20.475Z,8.96
2019-04-05T02:08:47.428Z,8.98
2019-04-05T02:11:14.097Z,8.98
2019-04-05T02:13:40.736Z,8.91
2019-04-05T02:16:07.499Z,8.92
2019-04-05T02:18:34.191Z,8.87
2019-04-05T02:21:00.870Z,8.88
2019-04-05T02:23:27.964Z,8.85
2019-04-05T02:25:54.620Z,8.85
2019-04-05T02:28:21.366Z,8.84
2019-04-05T02:30:48.017Z,8.85
2019-04-05T02:33:14.674Z,8.83
2019-04-05T02:35:41.546Z,8.87
2019-04-05T02:38:08.180Z,8.89
2019-04-05T02:40:37.017Z,8.88
2019-04-05T02:43:03.776Z,8.86
2019-04-05T02:45:31.407Z,8.85
2019-04-05T02:48:01.002Z,8.84
2019-04-05T02:50:28.538Z,8.85
2019-04-05T02:52:57.407Z,8.84
2019-04-05T02:55:25.037Z,8.84
2019-04-05T02:57:52.695Z,8.82
2019-04-05T03:00:19.330Z,8.77
2019-04-05T03:02:46.311Z,8.80
2019-04-05T03:05:12.949Z,8.80
2019-04-05T03:07:39.652Z,8.81
2019-04-05T03:10:06.394Z,8.81
2019-04-05T03:12:33.485Z,8.79
2019-04-05T03:15:00.557Z,8.75
2019-04-05T03:17:27.303Z,8.73
2019-04-05T03:19:55.761Z,8.72
2019-04-05T03:22:23.488Z,8.74
2019-04-05T03:24:50.535Z,8.75
2019-04-05T03:27:22.911Z,8.74
2019-04-05T03:29:49.544Z,8.72
2019-04-05T03:32:16.422Z,8.72
2019-04-05T03:34:43.307Z,8.71
2019-04-05T03:37:10.007Z,8.68
2019-04-05T03:39:36.776Z,8.68
2019-04-05T03:42:03.732Z,8.67
2019-04-05T03:44:31.523Z,8.66
2019-04-05T03:46:58.272Z,8.65
2019-04-05T03:49:24.945Z,8.62
2019-04-05T03:51:51.817Z,8.55
2019-04-05T03:54:18.519Z,8.54
2019-04-05T03:56:45.674Z,8.57
2019-04-05T03:59:12.611Z,8.54
2019-04-05T04:01:39.332Z,8.48
2019-04-05T04:04:06.363Z,8.45
2019-04-05T04:06:33.101Z,8.43
2019-04-05T04:09:00.449Z,8.40
2019-04-05T04:11:27.083Z,8.43
2019-04-05T04:13:54.003Z,8.38
2019-04-05T04:16:21.376Z,8.41
2019-04-05T04:18:48.653Z,8.40
2019-04-05T04:21:34.025Z,8.40
2019-04-05T04:24:01.022Z,8.41
2019-04-05T04:26:27.764Z,8.41
2019-04-05T04:28:54.468Z,8.44
2019-04-05T04:31:23.107Z,8.44
2019-04-05T04:33:49.795Z,8.43
2019-04-05T04:36:16.726Z,8.34
2019-04-05T04:38:43.560Z,8.38
2019-04-05T04:41:10.196Z,8.39
2019-04-05T04:43:37.186Z,8.37
2019-04-05T04:46:04.143Z,8.37
2019-04-05T04:48:31.437Z,8.38
2019-04-05T04:50:58.795Z,8.39
2019-04-05T04:53:25.553Z,8.41
2019-04-05T04:55:52.612Z,8.42
2019-04-05T04:58:19.380Z,8.42
2019-04-05T05:00:46.580Z,8.39
2019-04-05T05:03:13.617Z,8.42
2019-04-05T05:05:40.425Z,8.37
2019-04-05T05:08:07.669Z,8.33
2019-04-05T05:10:34.774Z,8.31
2019-04-05T05:13:04.651Z,8.32
2019-04-05T05:15:31.535Z,8.32
2019-04-05T05:17:59.108Z,8.28
2019-04-05T05:20:26.613Z,8.27
2019-04-05T05:22:53.374Z,8.29
2019-04-05T05:25:20.226Z,8.33
2019-04-05T05:27:47.075Z,8.27
2019-04-05T05:30:14.144Z,8.32
2019-04-05T05:32:41.166Z,8.36
2019-04-05T05:35:08.029Z,8.30
2019-04-05T05:37:37.550Z,8.25
2019-04-05T05:40:04.465Z,8.27
2019-04-05T05:42:31.688Z,8.30
2019-04-05T05:44:59.443Z,8.31
2019-04-05T05:47:26.171Z,8.32
2019-04-05T05:49:52.910Z,8.36
2019-04-05T05:52:19.714Z,8.40
2019-04-05T05:54:46.771Z,8.41
2019-04-05T05:57:13.497Z,8.40
2019-04-05T05:59:40.409Z,8.44
2019-04-05T06:02:08.282Z,8.48
2019-04-05T06:04:35.061Z,8.52
2019-04-05T06:07:02.919Z,8.50
2019-04-05T06:09:29.657Z,8.50
2019-04-05T06:11:59.643Z,8.52
2019-04-05T06:14:26.425Z,8.54
2019-04-05T06:16:53.419Z,8.49
2019-04-05T06:19:20.245Z,8.46
2019-04-05T06:21:47.069Z,8.47
2019-04-05T06:24:14.023Z,8.44
2019-04-05T06:26:40.764Z,8.47
2019-04-05T06:29:09.767Z,8.51
2019-04-05T06:31:37.622Z,8.59
2019-04-05T06:34:04.509Z,8.60
2019-04-05T06:36:31.344Z,8.65
2019-04-05T06:38:58.195Z,8.70
2019-04-05T06:41:24.941Z,8.60
2019-04-05T06:43:51.771Z,8.54
2019-04-05T06:46:18.587Z,8.57
2019-04-05T06:48:45.274Z,8.58
2019-04-05T06:51:12.074Z,8.62
2019-04-05T06:53:38.774Z,8.68
2019-04-05T06:56:06.612Z,8.71
2019-04-05T06:58:33.370Z,8.74
2019-04-05T07:01:00.066Z,8.78
2019-04-05T07:03:26.793Z,8.80
2019-04-05T07:05:54.510Z,8.85
2019-04-05T07:08:22.313Z,8.89
2019-04-05T07:10:49.332Z,8.93
2019-04-05T07:13:17.149Z,8.94
2019-04-05T07:15:43.904Z,8.98
2019-04-05T07:18:10.728Z,9.00
2019-04-05T07:20:37.526Z,9.02
2019-04-05T07:23:04.368Z,9.05
2019-04-05T07:25:31.128Z,9.05
2019-04-05T07:27:57.960Z,9.08
2019-04-05T07:30:24.781Z,9.12
2019-04-05T07:32:51.541Z,9.12
2019-04-05T07:35:18.379Z,9.18
2019-04-05T07:37:45.263Z,9.16
2019-04-05T07:40:12.002Z,9.16
2019-04-05T07:42:38.695Z,9.17
2019-04-05T07:45:05.899Z,9.14
2019-04-05T07:47:34.679Z,9.17
2019-04-05T07:50:01.547Z,9.19
2019-04-05T07:52:28.243Z,9.21
2019-04-05T07:54:54.927Z,9.19
2019-04-05T07:57:21.725Z,9.16
2019-04-05T07:59:48.711Z,9.18
2019-04-05T08:02:15.561Z,9.16
2019-04-05T08:04:42.334Z,9.15
2019-04-05T08:07:09.484Z,9.18
2019-04-05T08:09:36.816Z,9.20
2019-04-05T08:12:04.261Z,9.20
2019-04-05T08:14:31.085Z,9.19
2019-04-05T08:16:57.843Z,9.21
2019-04-05T08:19:25.677Z,9.14
2019-04-05T08:21:52.527Z,9.15
2019-04-05T08:24:19.273Z,9.15
2019-04-05T08:26:45.958Z,9.16
2019-04-05T08:29:12.835Z,9.19
2019-04-05T08:31:39.496Z,9.19
2019-04-05T08:34:06.213Z,9.20
2019-04-05T08:36:32.896Z,9.21
2019-04-05T08:38:59.606Z,9.22
2019-04-05T08:41:27.367Z,9.16
2019-04-05T08:43:54.300Z,9.21
2019-04-05T08:46:21.015Z,9.24
2019-04-05T08:48:53.644Z,9.25
2019-04-05T08:51:20.414Z,9.17
2019-04-05T08:53:47.245Z,9.18
2019-04-05T08:56:14.151Z,9.16
2019-04-05T08:58:40.848Z,9.12
2019-04-05T09:01:07.634Z,9.10
2019-04-05T09:03:34.345Z,9.06
2019-04-05T09:06:01.206Z,9.08
2019-04-05T09:08:27.985Z,9.15
2019-04-05T09:10:55.835Z,9.17
2019-04-05T09:13:22.555Z,9.19
2019-04-05T09:15:49.526Z,9.26
2019-04-05T09:18:16.277Z,9.27
2019-04-05T09:20:44.040Z,9.36
2019-04-05T09:23:10.788Z,9.41
2019-04-05T09:25:37.521Z,9.53
2019-04-05T09:28:04.260Z,9.57
2019-04-05T09:30:31.027Z,9.59
2019-04-05T09:32:57.758Z,9.62
2019-04-05T09:35:26.364Z,9.65
2019-04-05T09:37:54.182Z,9.66
2019-04-05T09:40:21.341Z,9.72
2019-04-05T09:42:47.995Z,9.74
2019-04-05T09:45:16.797Z,9.77
2019-04-05T09:47:43.788Z,9.84
2019-04-05T09:50:10.621Z,9.88
2019-04-05T09:52:39.927Z,9.88
2019-04-05T09:55:07.319Z,9.87
2019-04-05T09:57:35.159Z,9.92
2019-04-05T10:00:04.054Z,9.85
2019-04-05T10:02:31.869Z,9.87
2019-04-05T10:04:58.728Z,9.90
2019-04-05T10:07:25.523Z,9.93
2019-04-05T10:09:52.395Z,9.97
2019-04-05T10:12:22.348Z,10.05
2019-04-05T10:14:49.106Z,10.14
2019-04-05T10:17:16.113Z,10.29
2019-04-05T10:19:49.728Z,10.41
2019-04-05T10:22:12.562Z,10.58
2019-04-05T10:24:40.330Z,10.70
2019-04-05T10:27:07.061Z,10.82
2019-04-05T10:29:33.896Z,10.92
2019-04-05T10:32:00.695Z,10.96
2019-04-05T10:34:27.501Z,11.00
2019-04-05T10:36:54.263Z,11.00
2019-04-05T10:39:21.022Z,10.96
2019-04-05T10:41:47.759Z,10.91
2019-04-05T10:44:16.523Z,10.88
2019-04-05T10:46:43.378Z,10.83
2019-04-05T10:49:10.318Z,10.80
2019-04-05T10:51:36.987Z,10.74
2019-04-05T10:54:03.830Z,10.71
2019-04-05T10:56:30.563Z,10.70
2019-04-05T10:58:57.483Z,10.71
2019-04-05T11:01:24.150Z,10.72
2019-04-05T11:03:51.043Z,10.76
2019-04-05T11:06:17.849Z,10.81
2019-04-05T11:08:44.698Z,10.82
2019-04-05T11:11:11.694Z,10.79
2019-04-05T11:13:38.511Z,10.83
2019-04-05T11:16:05.591Z,10.88
2019-04-05T11:18:32.830Z,10.88
2019-04-05T11:21:00.286Z,10.84
2019-04-05T11:23:27.229Z,10.88
2019-04-05T11:25:54.090Z,10.92
2019-04-05T11:28:36.421Z,10.96
2019-04-05T11:31:03.549Z,11.02
2019-04-05T11:33:30.608Z,11.17
2019-04-05T11:35:58.137Z,11.31
2019-04-05T11:38:24.888Z,11.48
2019-04-05T11:40:57.600Z,11.62
2019-04-05T11:43:26.890Z,11.74
2019-04-05T11:45:54.767Z,11.73
2019-04-05T11:48:23.826Z,11.71
2019-04-05T11:50:52.877Z,11.68
2019-04-05T11:53:21.996Z,11.78
2019-04-05T11:55:48.246Z,11.94
2019-04-05T11:58:14.974Z,12.09
2019-04-05T12:00:47.276Z,12.25
2019-04-05T12:03:14.142Z,12.42
2019-04-05T12:05:42.780Z,12.54
2019-04-05T12:08:09.617Z,12.69
2019-04-05T12:10:36.401Z,12.68
2019-04-05T12:13:04.468Z,12.77
2019-04-05T12:15:31.326Z,12.98
2019-04-05T12:17:58.045Z,13.22
2019-04-05T12:20:25.030Z,13.46
2019-04-05T12:22:52.585Z,13.86
2019-04-05T12:25:20.775Z,14.28
2019-04-05T12:27:47.748Z,14.64
2019-04-05T12:30:17.016Z,14.86
2019-04-05T12:32:46.655Z,15.10
2019-04-05T12:35:14.523Z,15.09
2019-04-05T12:37:50.110Z,14.98
2019-04-05T12:40:14.953Z,14.77
2019-04-05T12:42:43.526Z,14.59
2019-04-05T12:45:22.601Z,14.44
2019-04-05T12:47:49.842Z,14.34
2019-04-05T12:50:16.545Z,14.27
2019-04-05T12:52:44.553Z,14.18
2019-04-05T12:55:13.095Z,14.15
2019-04-05T12:57:40.981Z,14.17
2019-04-05T13:00:13.213Z,14.23
2019-04-05T13:02:40.233Z,14.20
2019-04-05T13:05:07.101Z,14.13
2019-04-05T13:07:36.554Z,14.07
2019-04-05T13:10:03.708Z,14.06
2019-04-05T13:12:30.582Z,14.04
2019-04-05T13:15:11.205Z,13.98
2019-04-05T13:17:26.050Z,13.87
2019-04-05T13:20:05.763Z,13.92
2019-04-05T13:22:33.122Z,13.93
2019-04-05T13:25:00.097Z,13.92
2019-04-05T13:27:26.922Z,13.92
2019-04-05T13:29:53.635Z,13.95
2019-04-05T13:32:28.793Z,13.99
2019-04-05T13:34:55.369Z,14.09
2019-04-05T13:37:20.827Z,14.16
2019-04-05T13:39:48.823Z,14.26
2019-04-05T13:42:15.629Z,14.35
2019-04-05T13:44:42.425Z,14.43
2019-04-05T13:47:16.249Z,14.58
2019-04-05T13:49:44.105Z,14.65
2019-04-05T13:52:12.030Z,14.80
2019-04-05T13:54:40.348Z,15.08
2019-04-05T13:57:08.564Z,15.50
2019-04-05T13:59:36.433Z,15.84
2019-04-05T14:02:06.175Z,16.29
2019-04-05T14:04:32.394Z,16.65
2019-04-05T14:06:59.232Z,16.95
2019-04-05T14:09:26.002Z,17.13
2019-04-05T14:11:52.681Z,17.28
2019-04-05T14:14:20.065Z,17.39
2019-04-05T14:16:47.157Z,17.46
2019-04-05T14:19:14.058Z,17.35
2019-04-05T14:21:47.094Z,17.06
2019-04-05T14:24:09.447Z,16.79
2019-04-05T14:26:37.360Z,16.45
2019-04-05T14:29:04.375Z,16.46
2019-04-05T14:31:31.629Z,16.56
2019-04-05T14:33:59.023Z,16.81
2019-04-05T14:36:26.834Z,16.85
2019-04-05T14:38:53.761Z,16.97
2019-04-05T14:41:20.623Z,17.15
2019-04-05T14:43:47.609Z,17.05
2019-04-05T14:46:14.466Z,17.27
2019-04-05T14:48:41.154Z,17.23
2019-04-05T14:51:07.904Z,17.21
2019-04-05T14:53:34.817Z,17.19
2019-04-05T14:56:01.738Z,17.11
2019-04-05T14:58:28.615Z,16.90
2019-04-05T15:00:55.624Z,16.72
2019-04-05T15:03:24.290Z,16.66
2019-04-05T15:05:51.057Z,16.59
2019-04-05T15:08:31.729Z,16.57
2019-04-05T15:10:58.710Z,16.60
2019-04-05T15:13:25.564Z,16.64
2019-04-05T15:15:52.453Z,16.70
2019-04-05T15:18:19.749Z,16.65
2019-04-05T15:20:46.780Z,16.63
2019-04-05T15:23:14.101Z,16.56
2019-04-05T15:25:41.424Z,16.46
2019-04-05T15:28:08.157Z,16.38
2019-04-05T15:30:34.912Z,16.24
2019-04-05T15:33:03.654Z,16.20
2019-04-05T15:35:31.366Z,16.14
2019-04-05T15:38:01.325Z,16.09
2019-04-05T15:40:28.779Z,16.01
2019-04-05T15:42:56.639Z,16.04
2019-04-05T15:45:23.505Z,15.93
2019-04-05T15:47:56.227Z,15.86
2019-04-05T15:50:23.182Z,15.81
2019-04-05T15:52:49.972Z,15.76
2019-04-05T15:55:16.896Z,15.68
2019-04-05T15:57:43.532Z,15.66
2019-04-05T16:00:11.574Z,15.59
2019-04-05T16:02:42.740Z,15.43
2019-04-05T16:05:08.997Z,15.43
2019-04-05T16:07:39.400Z,15.37
2019-04-05T16:10:07.434Z,15.35
2019-04-05T16:12:34.262Z,15.30
2019-04-05T16:15:03.867Z,15.24
2019-04-05T16:17:31.274Z,15.18
2019-04-05T16:19:58.447Z,15.12
2019-04-05T16:22:31.125Z,15.06
2019-04-05T16:24:56.096Z,15.01
2019-04-05T16:27:24.063Z,14.96
2019-04-05T16:29:50.921Z,14.92
2019-04-05T16:32:17.647Z,14.88
2019-04-05T16:34:44.394Z,14.81
2019-04-05T16:37:11.266Z,14.81
2019-04-05T16:39:37.983Z,14.79
2019-04-05T16:42:04.731Z,14.76
2019-04-05T16:44:32.501Z,14.72
2019-04-05T16:46:59.217Z,14.70
2019-04-05T16:49:25.949Z,14.66
2019-04-05T16:51:52.773Z,14.65
2019-04-05T16:54:19.427Z,14.58
2019-04-05T16:56:46.072Z,14.53
2019-04-05T16:59:12.732Z,14.46
2019-04-05T17:01:40.428Z,14.41
2019-04-05T17:04:07.342Z,14.37
2019-04-05T17:06:34.216Z,14.34
2019-04-05T17:09:01.015Z,14.28
2019-04-05T17:11:27.708Z,14.17
2019-04-05T17:13:59.251Z,14.14
2019-04-05T17:16:23.267Z,14.11
2019-04-05T17:18:50.098Z,14.11
2019-04-05T17:21:17.665Z,14.08
2019-04-05T17:23:44.556Z,14.06
2019-04-05T17:26:11.375Z,14.02
2019-04-05T17:28:38.210Z,13.98
2019-04-05T17:31:06.034Z,13.94
2019-04-05T17:33:32.752Z,13.86
2019-04-05T17:35:59.584Z,13.77
2019-04-05T17:38:26.344Z,13.69
2019-04-05T17:40:53.119Z,13.66
2019-04-05T17:43:19.807Z,13.57
2019-04-05T17:45:46.574Z,13.51
2019-04-05T17:48:13.502Z,13.48
2019-04-05T17:50:40.165Z,13.45
2019-04-05T17:53:12.609Z,13.44
2019-04-05T17:55:37.888Z,13.42
2019-04-05T17:58:06.108Z,13.39
2019-04-05T18:00:32.911Z,13.40
2019-04-05T18:02:59.783Z,13.39
2019-04-05T18:05:26.435Z,13.36
2019-04-05T18:07:53.211Z,13.34
2019-04-05T18:10:20.136Z,13.31
2019-04-05T18:12:47.049Z,13.24
2019-04-05T18:15:13.875Z,13.21
2019-04-05T18:17:40.610Z,13.15
2019-04-05T18:20:09.834Z,13.13
2019-04-05T18:22:36.149Z,13.09
2019-04-05T18:25:03.050Z,13.07
2019-04-05T18:27:29.754Z,13.03
2019-04-05T18:32:31.410Z,13.03
2019-04-05T18:34:58.294Z,12.93
2019-04-05T18:37:25.041Z,12.89
2019-04-05T18:39:52.304Z,12.84
2019-04-05T18:42:19.027Z,12.81
2019-04-05T18:44:45.870Z,12.74
2019-04-05T18:47:12.623Z,12.74
2019-04-05T18:49:39.361Z,12.69
2019-04-05T18:52:07.069Z,12.65
2019-04-05T18:54:33.792Z,12.60
2019-04-05T18:57:00.681Z,12.57
2019-04-05T18:59:27.380Z,12.53
2019-04-05T19:01:54.270Z,12.51
2019-04-05T19:04:20.969Z,12.47
2019-04-05T19:06:47.543Z,12.43
2019-04-05T19:09:15.373Z,12.40
2019-04-05T19:11:42.041Z,12.33
2019-04-05T19:14:08.873Z,12.29
2019-04-05T19:16:35.516Z,12.24
2019-04-05T19:19:02.424Z,12.21
2019-04-05T19:21:29.350Z,12.18
2019-04-05T19:23:56.107Z,12.15
2019-04-05T19:26:24.003Z,12.12
2019-04-05T19:28:51.395Z,12.10
2019-04-05T19:48:38.297Z,11.85
2019-04-05T19:51:05.006Z,11.84
2019-04-05T19:53:31.670Z,11.80
2019-04-05T19:55:58.657Z,11.82
2019-04-05T19:58:25.314Z,11.77
2019-04-05T20:00:52.023Z,11.78
2019-04-05T20:03:18.678Z,11.77
2019-04-05T20:05:45.743Z,11.74
2019-04-05T20:08:12.446Z,11.75
2019-04-05T20:10:39.287Z,11.74
2019-04-05T20:13:05.941Z,11.71
2019-04-05T20:15:32.705Z,11.71
2019-04-05T20:17:59.455Z,11.69
2019-04-05T20:20:26.212Z,11.66
2019-04-05T20:22:52.967Z,11.66
2019-04-05T20:25:19.692Z,11.62
2019-04-05T20:27:47.451Z,11.59
2019-04-05T20:30:14.330Z,11.54
2019-04-05T20:32:41.194Z,11.52
2019-04-05T20:35:08.126Z,11.52
2019-04-05T20:37:34.849Z,11.49
2019-04-05T20:40:01.958Z,11.48
2019-04-05T20:42:28.644Z,11.48
2019-04-05T20:44:55.495Z,11.47
2019-04-05T20:47:22.164Z,11.47
2019-04-05T20:49:48.903Z,11.43
2019-04-05T20:52:15.784Z,11.43
2019-04-05T20:54:42.476Z,11.40
2019-04-05T20:57:09.831Z,11.42
2019-04-05T20:59:38.010Z,11.40
2019-04-05T21:02:05.147Z,11.38
2019-04-05T21:04:32.120Z,11.37
2019-04-05T21:06:59.052Z,11.35
2019-04-05T21:09:26.966Z,11.32
2019-04-05T21:11:54.060Z,11.29
2019-04-05T21:14:21.014Z,11.29
2019-04-05T21:16:47.932Z,11.27
2019-04-05T21:19:15.011Z,11.22
2019-04-05T21:21:42.055Z,11.19
2019-04-05T21:24:09.994Z,11.16
2019-04-05T21:26:36.634Z,11.13
2019-04-05T21:29:03.515Z,11.14
2019-04-05T21:31:30.058Z,11.11
2019-04-05T21:33:56.834Z,11.07
2019-04-05T21:36:25.475Z,11.04
2019-04-05T21:38:52.214Z,11.02
2019-04-05T21:41:19.120Z,11.00
2019-04-05T21:43:45.811Z,11.00
2019-04-05T21:46:12.835Z,11.00
2019-04-05T21:48:39.499Z,11.00
2019-04-05T21:51:06.125Z,10.98
2019-04-05T21:53:32.764Z,10.97
2019-04-05T21:55:59.440Z,10.96
2019-04-05T21:58:28.940Z,10.94
2019-04-05T22:01:00.764Z,10.96
2019-04-05T22:03:27.531Z,10.95
2019-04-05T22:05:54.253Z,10.94
2019-04-05T22:08:20.905Z,10.92
2019-04-05T22:10:47.475Z,10.91
2019-04-05T22:13:14.132Z,10.91
2019-04-05T22:15:40.921Z,10.91
2019-04-05T22:18:07.487Z,10.91
2019-04-05T22:20:34.145Z,10.90
2019-04-05T22:23:00.833Z,10.87
2019-04-05T22:25:27.463Z,10.90
2019-04-05T22:27:54.172Z,10.89
2019-04-05T22:30:20.867Z,10.90
2019-04-05T22:32:47.486Z,10.91
2019-04-05T22:35:14.137Z,10.91
2019-04-05T22:37:40.795Z,10.93
2019-04-05T22:40:08.175Z,10.92
2019-04-05T22:42:34.825Z,10.90
2019-04-05T22:45:02.379Z,10.86
2019-04-05T22:47:29.098Z,10.85
2019-04-05T22:49:55.742Z,10.85
2019-04-05T22:52:22.598Z,10.85
2019-04-05T22:54:49.133Z,10.82
2019-04-05T22:57:15.694Z,10.80
2019-04-05T22:59:42.365Z,10.78
2019-04-05T23:02:09.025Z,10.74
2019-04-05T23:04:35.704Z,10.71
2019-04-05T23:07:02.459Z,10.67
2019-04-05T23:09:29.124Z,10.61
2019-04-05T23:11:55.765Z,10.57
2019-04-05T23:14:22.527Z,10.50
2019-04-05T23:16:49.216Z,10.44
2019-04-05T23:19:15.979Z,10.39
2019-04-05T23:21:42.650Z,10.35
2019-04-05T23:24:09.325Z,10.29
2019-04-05T23:26:35.890Z,10.24
2019-04-05T23:29:02.655Z,10.22
2019-04-05T23:31:29.418Z,10.18
2019-04-05T23:33:56.028Z,10.11
2019-04-05T23:36:22.893Z,10.05
2019-04-05T23:38:49.436Z,10.02
2019-04-05T23:41:16.179Z,10.00
2019-04-05T23:43:42.837Z,10.00
2019-04-05T23:46:09.525Z,9.94
2019-04-05T23:48:36.077Z,9.90
2019-04-05T23:51:02.821Z,9.85
2019-04-05T23:53:29.374Z,9.81
2019-04-05T23:55:56.043Z,9.78
2019-04-05T23:58:22.723Z,9.74
